KBJJ/BJJ METAR and TAF weather

Enter ICAO airport designator
Station Type Date Time Source
KBJJ METAR 2019/12/14 06:13 UTC NOAA

KBJJ 140613Z AUTO 00000KT 4SM BR OVC005 02/01 A2972 RMK AO2 T00220011


Station Type Date Time Source
KBJJ Decoded METAR 2019/12/14 06:13 UTC NOAA

WOOSTER WAYNE COUNTY AIRPORT, OH, United States (KBJJ) 40-52N 81-53W 343M
Dec 14, 2019 - 01:13 AM EST / 2019.12.14 0613 UTC
Wind: Calm:0
Visibility: 4 mile(s):0
Sky conditions: overcast
Weather: mist
Temperature: 36.0 F (2.2 C)
Dew Point: 34.0 F (1.1 C)
Relative Humidity: 92%
Pressure (altimeter): 29.72 in. Hg (1006 hPa)
ob: KBJJ 140613Z AUTO 00000KT 4SM BR OVC005 02/01 A2972 RMK AO2 T00220011
cycle: 6

Station Type Date Time Source
KBJJ TAF UTC NOAA

Error!

Example: see airport list